sensor_id;sensor_type;location;lat;lon;timestamp;temperature;humidity
19017;DHT22;9641;51.494;6.670;2023-12-29T00:02:12;11.30;19.90
19017;DHT22;9641;51.494;6.670;2023-12-29T00:04:39;11.30;21.30
19017;DHT22;9641;51.494;6.670;2023-12-29T00:07:08;11.30;9.40
19017;DHT22;9641;51.494;6.670;2023-12-29T00:09:36;11.30;17.00
19017;DHT22;9641;51.494;6.670;2023-12-29T00:12:06;11.40;24.60
19017;DHT22;9641;51.494;6.670;2023-12-29T00:14:36;11.40;27.40
19017;DHT22;9641;51.494;6.670;2023-12-29T00:17:03;11.40;25.10
19017;DHT22;9641;51.494;6.670;2023-12-29T00:19:30;11.30;19.10
19017;DHT22;9641;51.494;6.670;2023-12-29T00:21:57;11.30;24.90
19017;DHT22;9641;51.494;6.670;2023-12-29T00:24:25;11.30;29.10
19017;DHT22;9641;51.494;6.670;2023-12-29T00:26:53;11.30;29.00
19017;DHT22;9641;51.494;6.670;2023-12-29T00:29:20;11.30;37.80
19017;DHT22;9641;51.494;6.670;2023-12-29T00:31:47;11.30;29.30
19017;DHT22;9641;51.494;6.670;2023-12-29T00:34:14;11.30;30.40
19017;DHT22;9641;51.494;6.670;2023-12-29T00:36:40;11.30;32.80
19017;DHT22;9641;51.494;6.670;2023-12-29T00:39:07;11.30;26.80
19017;DHT22;9641;51.494;6.670;2023-12-29T00:41:34;11.30;21.50
19017;DHT22;9641;51.494;6.670;2023-12-29T00:44:02;11.40;19.30
19017;DHT22;9641;51.494;6.670;2023-12-29T00:46:29;11.40;26.70
19017;DHT22;9641;51.494;6.670;2023-12-29T00:48:56;11.30;19.10
19017;DHT22;9641;51.494;6.670;2023-12-29T00:51:23;11.40;16.80
19017;DHT22;9641;51.494;6.670;2023-12-29T00:53:49;11.40;15.40
19017;DHT22;9641;51.494;6.670;2023-12-29T00:56:16;11.40;25.20
19017;DHT22;9641;51.494;6.670;2023-12-29T00:58:43;11.40;29.70
19017;DHT22;9641;51.494;6.670;2023-12-29T01:01:12;11.40;18.80
19017;DHT22;9641;51.494;6.670;2023-12-29T01:03:40;11.30;29.30
19017;DHT22;9641;51.494;6.670;2023-12-29T01:06:07;11.40;25.60
19017;DHT22;9641;51.494;6.670;2023-12-29T01:08:34;11.40;23.50
19017;DHT22;9641;51.494;6.670;2023-12-29T01:11:01;11.30;32.70
19017;DHT22;9641;51.494;6.670;2023-12-29T01:13:28;11.40;27.60
19017;DHT22;9641;51.494;6.670;2023-12-29T01:15:55;11.30;28.90
19017;DHT22;9641;51.494;6.670;2023-12-29T01:18:26;11.30;28.10
19017;DHT22;9641;51.494;6.670;2023-12-29T01:20:52;11.30;38.00
19017;DHT22;9641;51.494;6.670;2023-12-29T01:23:19;11.30;24.70
19017;DHT22;9641;51.494;6.670;2023-12-29T01:25:46;11.30;34.00
19017;DHT22;9641;51.494;6.670;2023-12-29T01:28:13;11.30;37.30
19017;DHT22;9641;51.494;6.670;2023-12-29T01:30:39;11.30;25.80
19017;DHT22;9641;51.494;6.670;2023-12-29T01:33:06;11.30;40.70
19017;DHT22;9641;51.494;6.670;2023-12-29T01:35:34;11.30;49.60
19017;DHT22;9641;51.494;6.670;2023-12-29T01:38:02;11.30;53.40
19017;DHT22;9641;51.494;6.670;2023-12-29T01:40:30;11.20;61.30
19017;DHT22;9641;51.494;6.670;2023-12-29T01:42:57;11.20;99.90
19017;DHT22;9641;51.494;6.670;2023-12-29T01:45:24;11.00;99.90
19017;DHT22;9641;51.494;6.670;2023-12-29T01:47:52;10.80;99.90
19017;DHT22;9641;51.494;6.670;2023-12-29T01:50:21;10.70;99.90
19017;DHT22;9641;51.494;6.670;2023-12-29T01:52:50;10.50;99.90
19017;DHT22;9641;51.494;6.670;2023-12-29T01:55:20;10.30;99.90
19017;DHT22;9641;51.494;6.670;2023-12-29T01:57:48;10.10;99.90
19017;DHT22;9641;51.494;6.670;2023-12-29T02:00:17;9.90;99.90
19017;DHT22;9641;51.494;6.670;2023-12-29T02:02:44;9.70;99.90
19017;DHT22;9641;51.494;6.670;2023-12-29T02:05:13;9.60;99.90
19017;DHT22;9641;51.494;6.670;2023-12-29T02:07:41;9.60;99.90
19017;DHT22;9641;51.494;6.670;2023-12-29T02:10:09;9.50;99.90
19017;DHT22;9641;51.494;6.670;2023-12-29T02:12:39;9.40;99.90
19017;DHT22;9641;51.494;6.670;2023-12-29T02:15:07;9.40;99.90
19017;DHT22;9641;51.494;6.670;2023-12-29T02:17:38;9.40;99.90
19017;DHT22;9641;51.494;6.670;2023-12-29T02:20:06;9.30;99.90
19017;DHT22;9641;51.494;6.670;2023-12-29T02:22:33;9.30;99.90
19017;DHT22;9641;51.494;6.670;2023-12-29T02:25:01;9.30;99.90
19017;DHT22;9641;51.494;6.670;2023-12-29T02:27:38;9.30;99.90
19017;DHT22;9641;51.494;6.670;2023-12-29T02:30:10;9.40;99.90
19017;DHT22;9641;51.494;6.670;2023-12-29T02:32:41;9.40;99.90
19017;DHT22;9641;51.494;6.670;2023-12-29T02:35:10;9.40;99.90
19017;DHT22;9641;51.494;6.670;2023-12-29T02:37:39;9.40;99.90
19017;DHT22;9641;51.494;6.670;2023-12-29T02:40:08;9.30;99.90
19017;DHT22;9641;51.494;6.670;2023-12-29T02:42:34;9.30;99.90
19017;DHT22;9641;51.494;6.670;2023-12-29T02:45:02;9.30;99.90
19017;DHT22;9641;51.494;6.670;2023-12-29T02:47:29;9.30;99.90
19017;DHT22;9641;51.494;6.670;2023-12-29T02:49:55;9.30;99.90
19017;DHT22;9641;51.494;6.670;2023-12-29T02:52:22;9.30;99.90
19017;DHT22;9641;51.494;6.670;2023-12-29T02:54:49;9.30;99.90
19017;DHT22;9641;51.494;6.670;2023-12-29T02:57:18;9.40;99.90
19017;DHT22;9641;51.494;6.670;2023-12-29T02:59:47;9.40;99.90
19017;DHT22;9641;51.494;6.670;2023-12-29T03:02:14;9.40;99.90
19017;DHT22;9641;51.494;6.670;2023-12-29T03:04:41;9.40;99.90
19017;DHT22;9641;51.494;6.670;2023-12-29T03:07:08;9.40;99.90
19017;DHT22;9641;51.494;6.670;2023-12-29T03:09:34;9.50;99.90
19017;DHT22;9641;51.494;6.670;2023-12-29T03:12:01;9.50;99.90
19017;DHT22;9641;51.494;6.670;2023-12-29T03:14:30;9.50;99.90
19017;DHT22;9641;51.494;6.670;2023-12-29T03:16:57;9.60;99.90
19017;DHT22;9641;51.494;6.670;2023-12-29T03:19:25;9.60;99.90
19017;DHT22;9641;51.494;6.670;2023-12-29T03:21:52;9.60;99.90
19017;DHT22;9641;51.494;6.670;2023-12-29T03:24:20;9.60;99.90
19017;DHT22;9641;51.494;6.670;2023-12-29T03:26:48;9.70;99.90
19017;DHT22;9641;51.494;6.670;2023-12-29T03:29:15;9.80;99.90
19017;DHT22;9641;51.494;6.670;2023-12-29T03:31:43;9.80;99.90
19017;DHT22;9641;51.494;6.670;2023-12-29T03:34:10;9.80;99.90
19017;DHT22;9641;51.494;6.670;2023-12-29T03:36:37;9.80;99.90
19017;DHT22;9641;51.494;6.670;2023-12-29T03:39:04;9.90;99.90
19017;DHT22;9641;51.494;6.670;2023-12-29T03:41:31;9.90;99.90
19017;DHT22;9641;51.494;6.670;2023-12-29T03:43:58;10.00;99.90
19017;DHT22;9641;51.494;6.670;2023-12-29T03:46:25;10.00;99.90
19017;DHT22;9641;51.494;6.670;2023-12-29T03:48:53;10.00;99.90
19017;DHT22;9641;51.494;6.670;2023-12-29T03:51:20;10.20;99.90
19017;DHT22;9641;51.494;6.670;2023-12-29T03:53:47;10.20;99.90
19017;DHT22;9641;51.494;6.670;2023-12-29T03:56:15;10.20;99.90
19017;DHT22;9641;51.494;6.670;2023-12-29T03:58:42;10.30;99.90
19017;DHT22;9641;51.494;6.670;2023-12-29T04:01:10;10.40;99.90
19017;DHT22;9641;51.494;6.670;2023-12-29T04:03:37;10.40;99.90
19017;DHT22;9641;51.494;6.670;2023-12-29T04:06:06;10.50;99.90
19017;DHT22;9641;51.494;6.670;2023-12-29T04:08:34;10.50;99.90
19017;DHT22;9641;51.494;6.670;2023-12-29T04:11:01;10.40;99.90
19017;DHT22;9641;51.494;6.670;2023-12-29T04:13:29;10.50;99.90
19017;DHT22;9641;51.494;6.670;2023-12-29T04:15:55;10.50;99.90
19017;DHT22;9641;51.494;6.670;2023-12-29T04:18:23;10.50;99.90
19017;DHT22;9641;51.494;6.670;2023-12-29T04:20:51;10.50;99.90
19017;DHT22;9641;51.494;6.670;2023-12-29T04:23:19;10.50;99.90
19017;DHT22;9641;51.494;6.670;2023-12-29T04:25:47;10.50;99.90
19017;DHT22;9641;51.494;6.670;2023-12-29T04:28:14;10.50;99.90
19017;DHT22;9641;51.494;6.670;2023-12-29T04:30:41;10.50;99.90
19017;DHT22;9641;51.494;6.670;2023-12-29T04:33:08;10.50;99.90
19017;DHT22;9641;51.494;6.670;2023-12-29T04:35:34;10.50;99.90
19017;DHT22;9641;51.494;6.670;2023-12-29T04:38:01;10.60;99.90
19017;DHT22;9641;51.494;6.670;2023-12-29T04:40:29;10.60;99.90
19017;DHT22;9641;51.494;6.670;2023-12-29T04:42:56;10.60;99.90
19017;DHT22;9641;51.494;6.670;2023-12-29T04:45:23;10.50;99.90
19017;DHT22;9641;51.494;6.670;2023-12-29T04:47:50;10.50;99.90
19017;DHT22;9641;51.494;6.670;2023-12-29T04:50:17;10.50;99.90
19017;DHT22;9641;51.494;6.670;2023-12-29T04:52:44;10.50;99.90
19017;DHT22;9641;51.494;6.670;2023-12-29T04:55:11;10.50;99.90
19017;DHT22;9641;51.494;6.670;2023-12-29T04:57:40;10.50;99.90
19017;DHT22;9641;51.494;6.670;2023-12-29T05:00:07;10.50;99.90
19017;DHT22;9641;51.494;6.670;2023-12-29T05:02:34;10.50;99.90
19017;DHT22;9641;51.494;6.670;2023-12-29T05:05:01;10.50;99.90
19017;DHT22;9641;51.494;6.670;2023-12-29T05:07:28;10.50;99.90
19017;DHT22;9641;51.494;6.670;2023-12-29T05:09:58;10.50;99.90
19017;DHT22;9641;51.494;6.670;2023-12-29T05:12:25;10.50;99.90
19017;DHT22;9641;51.494;6.670;2023-12-29T05:14:53;10.50;99.90
19017;DHT22;9641;51.494;6.670;2023-12-29T05:17:20;10.50;99.90
19017;DHT22;9641;51.494;6.670;2023-12-29T05:19:47;10.60;99.90
19017;DHT22;9641;51.494;6.670;2023-12-29T05:22:14;10.60;99.90
19017;DHT22;9641;51.494;6.670;2023-12-29T05:24:43;10.60;99.90
19017;DHT22;9641;51.494;6.670;2023-12-29T05:27:10;10.60;99.90
19017;DHT22;9641;51.494;6.670;2023-12-29T05:29:37;10.60;99.90
19017;DHT22;9641;51.494;6.670;2023-12-29T05:32:06;10.60;99.90
19017;DHT22;9641;51.494;6.670;2023-12-29T05:34:34;10.70;99.90
19017;DHT22;9641;51.494;6.670;2023-12-29T05:37:00;10.60;99.90
19017;DHT22;9641;51.494;6.670;2023-12-29T05:39:27;10.60;99.90
19017;DHT22;9641;51.494;6.670;2023-12-29T05:41:55;10.60;99.90
19017;DHT22;9641;51.494;6.670;2023-12-29T05:44:21;10.60;99.90
19017;DHT22;9641;51.494;6.670;2023-12-29T05:46:48;10.50;99.90
19017;DHT22;9641;51.494;6.670;2023-12-29T05:49:16;10.60;99.90
19017;DHT22;9641;51.494;6.670;2023-12-29T05:51:44;10.50;99.90
19017;DHT22;9641;51.494;6.670;2023-12-29T05:54:10;10.50;99.90
19017;DHT22;9641;51.494;6.670;2023-12-29T05:56:37;10.50;99.90
19017;DHT22;9641;51.494;6.670;2023-12-29T05:59:04;10.50;99.90
19017;DHT22;9641;51.494;6.670;2023-12-29T06:01:31;10.50;99.90
19017;DHT22;9641;51.494;6.670;2023-12-29T06:03:58;10.50;99.90
19017;DHT22;9641;51.494;6.670;2023-12-29T06:06:26;10.50;99.90
19017;DHT22;9641;51.494;6.670;2023-12-29T06:08:52;10.50;99.90
19017;DHT22;9641;51.494;6.670;2023-12-29T06:11:19;10.50;99.90
19017;DHT22;9641;51.494;6.670;2023-12-29T06:13:46;10.50;99.90
19017;DHT22;9641;51.494;6.670;2023-12-29T06:16:17;10.50;99.90
19017;DHT22;9641;51.494;6.670;2023-12-29T06:18:44;10.50;99.90
19017;DHT22;9641;51.494;6.670;2023-12-29T06:21:12;10.50;99.90
19017;DHT22;9641;51.494;6.670;2023-12-29T06:23:40;10.50;99.90
19017;DHT22;9641;51.494;6.670;2023-12-29T06:26:16;10.50;99.90
19017;DHT22;9641;51.494;6.670;2023-12-29T06:28:43;10.50;99.90
19017;DHT22;9641;51.494;6.670;2023-12-29T06:31:10;10.50;99.90
19017;DHT22;9641;51.494;6.670;2023-12-29T06:33:40;10.50;99.90
19017;DHT22;9641;51.494;6.670;2023-12-29T06:36:08;10.50;99.90
19017;DHT22;9641;51.494;6.670;2023-12-29T06:38:35;10.50;99.90
19017;DHT22;9641;51.494;6.670;2023-12-29T06:41:04;10.60;99.90
19017;DHT22;9641;51.494;6.670;2023-12-29T06:43:31;10.60;99.90
19017;DHT22;9641;51.494;6.670;2023-12-29T06:45:57;10.60;99.90
19017;DHT22;9641;51.494;6.670;2023-12-29T06:48:24;10.60;99.90
19017;DHT22;9641;51.494;6.670;2023-12-29T06:50:51;10.60;99.90
19017;DHT22;9641;51.494;6.670;2023-12-29T06:53:18;10.60;99.90
19017;DHT22;9641;51.494;6.670;2023-12-29T06:55:45;10.40;99.90
19017;DHT22;9641;51.494;6.670;2023-12-29T06:58:14;10.30;99.90
19017;DHT22;9641;51.494;6.670;2023-12-29T07:00:40;10.30;99.90
19017;DHT22;9641;51.494;6.670;2023-12-29T07:03:07;10.30;99.90
19017;DHT22;9641;51.494;6.670;2023-12-29T07:05:34;10.30;99.90
19017;DHT22;9641;51.494;6.670;2023-12-29T07:08:01;10.30;99.90
19017;DHT22;9641;51.494;6.670;2023-12-29T07:10:27;10.20;99.90
19017;DHT22;9641;51.494;6.670;2023-12-29T07:12:54;10.10;99.90
19017;DHT22;9641;51.494;6.670;2023-12-29T07:15:23;9.90;99.90
19017;DHT22;9641;51.494;6.670;2023-12-29T07:17:50;9.80;99.90
19017;DHT22;9641;51.494;6.670;2023-12-29T07:20:16;9.70;99.90
19017;DHT22;9641;51.494;6.670;2023-12-29T07:22:43;9.60;99.90
19017;DHT22;9641;51.494;6.670;2023-12-29T07:25:10;9.60;99.90
19017;DHT22;9641;51.494;6.670;2023-12-29T07:27:38;9.60;99.90
19017;DHT22;9641;51.494;6.670;2023-12-29T07:30:06;9.60;99.90
19017;DHT22;9641;51.494;6.670;2023-12-29T07:32:34;9.60;99.90
19017;DHT22;9641;51.494;6.670;2023-12-29T07:35:02;9.60;99.90
19017;DHT22;9641;51.494;6.670;2023-12-29T07:37:28;9.60;99.90
19017;DHT22;9641;51.494;6.670;2023-12-29T07:39:55;9.60;99.90
19017;DHT22;9641;51.494;6.670;2023-12-29T07:42:22;9.60;99.90
19017;DHT22;9641;51.494;6.670;2023-12-29T07:44:49;9.60;99.90
19017;DHT22;9641;51.494;6.670;2023-12-29T07:47:16;9.70;99.90
19017;DHT22;9641;51.494;6.670;2023-12-29T07:49:45;9.70;99.90
19017;DHT22;9641;51.494;6.670;2023-12-29T07:52:12;9.70;99.90
19017;DHT22;9641;51.494;6.670;2023-12-29T07:54:38;9.80;99.90
19017;DHT22;9641;51.494;6.670;2023-12-29T07:57:05;9.80;99.90
19017;DHT22;9641;51.494;6.670;2023-12-29T07:59:32;9.90;99.90
19017;DHT22;9641;51.494;6.670;2023-12-29T08:01:59;9.90;99.90
19017;DHT22;9641;51.494;6.670;2023-12-29T08:04:26;9.90;99.90
19017;DHT22;9641;51.494;6.670;2023-12-29T08:06:54;10.00;99.90
19017;DHT22;9641;51.494;6.670;2023-12-29T08:09:21;10.00;99.90
19017;DHT22;9641;51.494;6.670;2023-12-29T08:11:48;10.00;99.90
19017;DHT22;9641;51.494;6.670;2023-12-29T08:14:15;10.10;99.90
19017;DHT22;9641;51.494;6.670;2023-12-29T08:16:43;10.20;99.90
19017;DHT22;9641;51.494;6.670;2023-12-29T08:19:10;10.20;99.90
19017;DHT22;9641;51.494;6.670;2023-12-29T08:21:37;10.20;99.90
19017;DHT22;9641;51.494;6.670;2023-12-29T08:24:05;10.20;99.90
19017;DHT22;9641;51.494;6.670;2023-12-29T08:26:32;10.10;99.90
19017;DHT22;9641;51.494;6.670;2023-12-29T08:28:59;10.00;99.90
19017;DHT22;9641;51.494;6.670;2023-12-29T08:31:26;9.90;99.90
19017;DHT22;9641;51.494;6.670;2023-12-29T08:33:55;9.80;99.90
19017;DHT22;9641;51.494;6.670;2023-12-29T08:36:22;9.70;99.90
19017;DHT22;9641;51.494;6.670;2023-12-29T08:38:49;9.70;99.90
19017;DHT22;9641;51.494;6.670;2023-12-29T08:41:19;9.70;99.90
19017;DHT22;9641;51.494;6.670;2023-12-29T08:43:46;9.70;99.90
19017;DHT22;9641;51.494;6.670;2023-12-29T08:46:13;9.70;99.90
19017;DHT22;9641;51.494;6.670;2023-12-29T08:48:40;9.80;99.90
19017;DHT22;9641;51.494;6.670;2023-12-29T08:51:06;9.80;99.90
19017;DHT22;9641;51.494;6.670;2023-12-29T08:53:33;9.90;99.90
19017;DHT22;9641;51.494;6.670;2023-12-29T08:56:01;9.90;99.90
19017;DHT22;9641;51.494;6.670;2023-12-29T08:58:30;9.90;99.90
19017;DHT22;9641;51.494;6.670;2023-12-29T09:00:56;10.00;99.90
19017;DHT22;9641;51.494;6.670;2023-12-29T09:03:23;10.00;99.90
19017;DHT22;9641;51.494;6.670;2023-12-29T09:05:50;10.00;99.90
19017;DHT22;9641;51.494;6.670;2023-12-29T09:08:17;10.00;99.90
19017;DHT22;9641;51.494;6.670;2023-12-29T09:10:44;10.00;99.90
19017;DHT22;9641;51.494;6.670;2023-12-29T09:13:10;10.00;99.90
19017;DHT22;9641;51.494;6.670;2023-12-29T09:15:38;10.00;99.90
19017;DHT22;9641;51.494;6.670;2023-12-29T09:18:06;10.10;99.90
19017;DHT22;9641;51.494;6.670;2023-12-29T09:20:32;10.20;99.90
19017;DHT22;9641;51.494;6.670;2023-12-29T09:22:59;10.20;99.90
19017;DHT22;9641;51.494;6.670;2023-12-29T09:25:29;10.20;99.90
19017;DHT22;9641;51.494;6.670;2023-12-29T09:27:55;10.30;99.90
19017;DHT22;9641;51.494;6.670;2023-12-29T09:30:22;10.30;99.90
19017;DHT22;9641;51.494;6.670;2023-12-29T09:32:50;10.30;99.90
19017;DHT22;9641;51.494;6.670;2023-12-29T09:35:17;10.40;99.90
19017;DHT22;9641;51.494;6.670;2023-12-29T09:37:47;10.40;99.90
19017;DHT22;9641;51.494;6.670;2023-12-29T09:40:15;10.40;99.90
19017;DHT22;9641;51.494;6.670;2023-12-29T09:42:43;10.40;99.90
19017;DHT22;9641;51.494;6.670;2023-12-29T09:45:12;10.30;99.90
19017;DHT22;9641;51.494;6.670;2023-12-29T09:47:41;10.30;99.90
19017;DHT22;9641;51.494;6.670;2023-12-29T09:50:11;10.40;99.90
19017;DHT22;9641;51.494;6.670;2023-12-29T09:52:39;10.30;99.90
19017;DHT22;9641;51.494;6.670;2023-12-29T09:55:10;10.30;99.90
19017;DHT22;9641;51.494;6.670;2023-12-29T09:57:37;10.20;99.90
19017;DHT22;9641;51.494;6.670;2023-12-29T10:00:10;10.30;99.90
19017;DHT22;9641;51.494;6.670;2023-12-29T10:02:38;10.20;99.90
19017;DHT22;9641;51.494;6.670;2023-12-29T10:05:05;10.10;99.90
19017;DHT22;9641;51.494;6.670;2023-12-29T10:07:36;10.10;99.90
19017;DHT22;9641;51.494;6.670;2023-12-29T10:10:04;10.00;99.90
19017;DHT22;9641;51.494;6.670;2023-12-29T10:12:32;10.00;99.90
19017;DHT22;9641;51.494;6.670;2023-12-29T10:15:05;10.10;99.90
19017;DHT22;9641;51.494;6.670;2023-12-29T10:17:40;10.10;99.90
19017;DHT22;9641;51.494;6.670;2023-12-29T10:20:15;10.10;99.90
19017;DHT22;9641;51.494;6.670;2023-12-29T10:22:51;10.10;99.90
19017;DHT22;9641;51.494;6.670;2023-12-29T10:25:18;10.10;99.90
19017;DHT22;9641;51.494;6.670;2023-12-29T10:27:45;10.20;99.90
19017;DHT22;9641;51.494;6.670;2023-12-29T10:30:13;10.20;99.90
19017;DHT22;9641;51.494;6.670;2023-12-29T10:32:40;10.30;99.90
19017;DHT22;9641;51.494;6.670;2023-12-29T10:35:11;10.30;99.90
19017;DHT22;9641;51.494;6.670;2023-12-29T10:37:38;10.40;99.90
19017;DHT22;9641;51.494;6.670;2023-12-29T10:40:08;10.40;99.90
19017;DHT22;9641;51.494;6.670;2023-12-29T10:42:35;10.50;99.90
19017;DHT22;9641;51.494;6.670;2023-12-29T10:45:06;10.50;99.90
19017;DHT22;9641;51.494;6.670;2023-12-29T10:47:34;10.60;99.90
19017;DHT22;9641;51.494;6.670;2023-12-29T10:50:02;10.60;99.90
19017;DHT22;9641;51.494;6.670;2023-12-29T10:52:31;10.70;99.90
19017;DHT22;9641;51.494;6.670;2023-12-29T10:55:07;10.70;99.90
19017;DHT22;9641;51.494;6.670;2023-12-29T10:57:35;10.70;99.90
19017;DHT22;9641;51.494;6.670;2023-12-29T11:00:03;10.80;99.90
19017;DHT22;9641;51.494;6.670;2023-12-29T11:02:31;10.90;99.90
19017;DHT22;9641;51.494;6.670;2023-12-29T11:05:03;11.00;99.90
19017;DHT22;9641;51.494;6.670;2023-12-29T11:07:37;11.10;99.90
19017;DHT22;9641;51.494;6.670;2023-12-29T11:10:08;11.10;99.90
19017;DHT22;9641;51.494;6.670;2023-12-29T11:12:36;11.20;99.90
19017;DHT22;9641;51.494;6.670;2023-12-29T11:15:05;11.20;99.90
19017;DHT22;9641;51.494;6.670;2023-12-29T11:17:34;11.30;99.90
19017;DHT22;9641;51.494;6.670;2023-12-29T11:20:03;11.30;99.90
19017;DHT22;9641;51.494;6.670;2023-12-29T11:22:31;11.30;99.90
19017;DHT22;9641;51.494;6.670;2023-12-29T11:24:58;11.30;99.90
19017;DHT22;9641;51.494;6.670;2023-12-29T11:27:29;11.40;99.90
19017;DHT22;9641;51.494;6.670;2023-12-29T11:29:57;11.30;99.90
19017;DHT22;9641;51.494;6.670;2023-12-29T11:32:30;11.30;99.90
19017;DHT22;9641;51.494;6.670;2023-12-29T11:35:06;11.30;99.90
19017;DHT22;9641;51.494;6.670;2023-12-29T11:38:01;11.40;99.90
19017;DHT22;9641;51.494;6.670;2023-12-29T11:40:33;11.40;99.90
19017;DHT22;9641;51.494;6.670;2023-12-29T11:43:08;11.40;99.90
19017;DHT22;9641;51.494;6.670;2023-12-29T11:45:36;11.40;99.90
19017;DHT22;9641;51.494;6.670;2023-12-29T11:48:03;11.30;99.90
19017;DHT22;9641;51.494;6.670;2023-12-29T11:50:31;11.40;99.90
19017;DHT22;9641;51.494;6.670;2023-12-29T11:52:59;11.40;99.90
19017;DHT22;9641;51.494;6.670;2023-12-29T11:55:30;11.40;99.90
19017;DHT22;9641;51.494;6.670;2023-12-29T11:57:57;11.40;99.90
19017;DHT22;9641;51.494;6.670;2023-12-29T12:00:51;11.40;99.90
19017;DHT22;9641;51.494;6.670;2023-12-29T12:03:23;11.40;99.90
19017;DHT22;9641;51.494;6.670;2023-12-29T12:05:52;11.40;99.90
19017;DHT22;9641;51.494;6.670;2023-12-29T12:08:30;11.40;99.90
19017;DHT22;9641;51.494;6.670;2023-12-29T12:10:57;11.40;99.90
19017;DHT22;9641;51.494;6.670;2023-12-29T12:13:46;11.40;99.90
19017;DHT22;9641;51.494;6.670;2023-12-29T12:16:47;11.30;99.90
19017;DHT22;9641;51.494;6.670;2023-12-29T12:19:15;11.40;99.90
19017;DHT22;9641;51.494;6.670;2023-12-29T12:21:45;11.40;99.90
19017;DHT22;9641;51.494;6.670;2023-12-29T12:24:13;11.40;99.90
19017;DHT22;9641;51.494;6.670;2023-12-29T12:26:40;11.40;99.90
19017;DHT22;9641;51.494;6.670;2023-12-29T12:29:08;11.40;99.90
19017;DHT22;9641;51.494;6.670;2023-12-29T12:31:35;11.50;99.90
19017;DHT22;9641;51.494;6.670;2023-12-29T12:34:02;11.50;99.90
19017;DHT22;9641;51.494;6.670;2023-12-29T12:36:31;11.50;99.90
19017;DHT22;9641;51.494;6.670;2023-12-29T12:38:58;11.40;99.90
19017;DHT22;9641;51.494;6.670;2023-12-29T12:41:26;11.40;99.90
19017;DHT22;9641;51.494;6.670;2023-12-29T12:43:59;11.30;99.90
19017;DHT22;9641;51.494;6.670;2023-12-29T12:46:33;11.20;99.90
19017;DHT22;9641;51.494;6.670;2023-12-29T12:49:01;11.10;99.90
19017;DHT22;9641;51.494;6.670;2023-12-29T12:51:29;10.90;99.90
19017;DHT22;9641;51.494;6.670;2023-12-29T12:53:57;10.80;99.90
19017;DHT22;9641;51.494;6.670;2023-12-29T12:56:24;10.70;99.90
19017;DHT22;9641;51.494;6.670;2023-12-29T12:58:54;10.70;99.90
19017;DHT22;9641;51.494;6.670;2023-12-29T13:01:21;10.60;99.90
19017;DHT22;9641;51.494;6.670;2023-12-29T13:03:50;10.70;99.90
19017;DHT22;9641;51.494;6.670;2023-12-29T13:06:17;10.70;99.90
19017;DHT22;9641;51.494;6.670;2023-12-29T13:08:45;10.70;99.90
19017;DHT22;9641;51.494;6.670;2023-12-29T13:11:12;10.70;99.90
19017;DHT22;9641;51.494;6.670;2023-12-29T13:13:41;10.70;99.90
19017;DHT22;9641;51.494;6.670;2023-12-29T13:16:08;10.70;99.90
19017;DHT22;9641;51.494;6.670;2023-12-29T13:18:35;10.70;99.90
19017;DHT22;9641;51.494;6.670;2023-12-29T13:21:04;10.70;99.90
19017;DHT22;9641;51.494;6.670;2023-12-29T13:23:31;10.70;99.90
19017;DHT22;9641;51.494;6.670;2023-12-29T13:26:24;10.70;99.90
19017;DHT22;9641;51.494;6.670;2023-12-29T13:28:52;10.70;99.90
19017;DHT22;9641;51.494;6.670;2023-12-29T13:31:19;10.70;99.90
19017;DHT22;9641;51.494;6.670;2023-12-29T13:33:52;10.70;99.90
19017;DHT22;9641;51.494;6.670;2023-12-29T13:36:29;10.80;99.90
19017;DHT22;9641;51.494;6.670;2023-12-29T13:39:13;10.80;99.90
19017;DHT22;9641;51.494;6.670;2023-12-29T13:41:42;10.80;99.90
19017;DHT22;9641;51.494;6.670;2023-12-29T13:44:10;10.80;99.90
19017;DHT22;9641;51.494;6.670;2023-12-29T13:46:38;10.80;99.90
19017;DHT22;9641;51.494;6.670;2023-12-29T13:49:08;10.90;99.90
19017;DHT22;9641;51.494;6.670;2023-12-29T13:51:37;10.90;99.90
19017;DHT22;9641;51.494;6.670;2023-12-29T13:54:04;11.00;99.90
19017;DHT22;9641;51.494;6.670;2023-12-29T13:56:30;11.00;99.90
19017;DHT22;9641;51.494;6.670;2023-12-29T13:58:58;11.00;99.90
19017;DHT22;9641;51.494;6.670;2023-12-29T14:01:35;11.10;99.90
19017;DHT22;9641;51.494;6.670;2023-12-29T14:04:03;11.20;99.90
19017;DHT22;9641;51.494;6.670;2023-12-29T14:06:39;11.20;99.90
19017;DHT22;9641;51.494;6.670;2023-12-29T14:09:15;11.20;99.90
19017;DHT22;9641;51.494;6.670;2023-12-29T14:11:46;11.20;99.90
19017;DHT22;9641;51.494;6.670;2023-12-29T14:14:14;11.20;99.90
19017;DHT22;9641;51.494;6.670;2023-12-29T14:16:41;11.30;99.90
19017;DHT22;9641;51.494;6.670;2023-12-29T14:19:08;11.30;99.90
19017;DHT22;9641;51.494;6.670;2023-12-29T14:21:36;11.30;99.90
19017;DHT22;9641;51.494;6.670;2023-12-29T14:24:11;11.30;99.90
19017;DHT22;9641;51.494;6.670;2023-12-29T14:26:39;11.30;99.90
19017;DHT22;9641;51.494;6.670;2023-12-29T14:29:08;11.30;99.90
19017;DHT22;9641;51.494;6.670;2023-12-29T14:31:36;11.30;99.90
19017;DHT22;9641;51.494;6.670;2023-12-29T14:34:04;11.30;99.90
19017;DHT22;9641;51.494;6.670;2023-12-29T14:36:31;11.30;99.90
19017;DHT22;9641;51.494;6.670;2023-12-29T14:38:58;11.30;99.90
19017;DHT22;9641;51.494;6.670;2023-12-29T14:41:26;11.20;99.90
19017;DHT22;9641;51.494;6.670;2023-12-29T14:43:53;11.20;99.90
19017;DHT22;9641;51.494;6.670;2023-12-29T14:46:20;11.20;99.90
19017;DHT22;9641;51.494;6.670;2023-12-29T14:48:48;11.20;99.90
19017;DHT22;9641;51.494;6.670;2023-12-29T14:51:15;11.20;99.90
19017;DHT22;9641;51.494;6.670;2023-12-29T14:53:43;11.20;99.90
19017;DHT22;9641;51.494;6.670;2023-12-29T14:56:11;11.10;99.90
19017;DHT22;9641;51.494;6.670;2023-12-29T14:58:39;11.00;99.90
19017;DHT22;9641;51.494;6.670;2023-12-29T15:01:06;10.90;99.90
19017;DHT22;9641;51.494;6.670;2023-12-29T15:03:34;10.70;99.90
19017;DHT22;9641;51.494;6.670;2023-12-29T15:06:02;10.70;99.90
19017;DHT22;9641;51.494;6.670;2023-12-29T15:08:30;10.70;99.90
19017;DHT22;9641;51.494;6.670;2023-12-29T15:11:01;10.80;99.90
19017;DHT22;9641;51.494;6.670;2023-12-29T15:13:28;10.80;99.90
19017;DHT22;9641;51.494;6.670;2023-12-29T15:15:58;10.90;99.90
19017;DHT22;9641;51.494;6.670;2023-12-29T15:18:25;10.90;99.90
19017;DHT22;9641;51.494;6.670;2023-12-29T15:20:53;10.90;99.90
19017;DHT22;9641;51.494;6.670;2023-12-29T15:23:19;10.90;99.90
19017;DHT22;9641;51.494;6.670;2023-12-29T15:25:48;10.70;99.90
19017;DHT22;9641;51.494;6.670;2023-12-29T15:28:15;10.50;99.90
19017;DHT22;9641;51.494;6.670;2023-12-29T15:30:43;10.40;99.90
19017;DHT22;9641;51.494;6.670;2023-12-29T15:33:13;10.30;99.90
19017;DHT22;9641;51.494;6.670;2023-12-29T15:35:40;10.20;99.90
19017;DHT22;9641;51.494;6.670;2023-12-29T15:38:08;10.10;99.90
19017;DHT22;9641;51.494;6.670;2023-12-29T15:40:35;9.90;99.90
19017;DHT22;9641;51.494;6.670;2023-12-29T15:43:02;9.90;99.90
19017;DHT22;9641;51.494;6.670;2023-12-29T15:45:30;9.80;99.90
19017;DHT22;9641;51.494;6.670;2023-12-29T15:47:57;9.80;99.90
19017;DHT22;9641;51.494;6.670;2023-12-29T15:50:25;9.80;99.90
19017;DHT22;9641;51.494;6.670;2023-12-29T15:52:52;9.90;99.90
19017;DHT22;9641;51.494;6.670;2023-12-29T15:55:19;9.90;99.90
19017;DHT22;9641;51.494;6.670;2023-12-29T15:57:46;9.90;99.90